Byars, Oklahoma
Current Conditions -  °F | °C
As of 10:35 AM on Wednesday 22 Oct 2014 (Local Time) from KPVJ Reporting Station
Clear Clear  
Wind Chill: 68°   Ceiling: Unl
Heat Index: 68°   Visibility: 10mi
Dew Point: 62°   Wind: 6mph
Humidity: 80%   Direction: 150°SSE
Pressure: 30.17"   Gusts: NA
Location:  34.87°N, 97.05°W
Report Text: KPVJ 221535Z AUTO 15005KT 10SM CLR 20/16 A3017 RMK AO2 T02000164
Loading
Personal Weather Stations






























Interactive Weather Map
Tropical Storm Tracking
New forecast layout! Learn more

10-Day Weather Forecast

Advertisements
Track Severe Weather on mobile